Time;durP1;ratioP1;P1;durP2;ratioP2;P2;SDS_P1;SDS_P2;PMS_P1;PMS_P2;Temp;Humidity;BMP_temperature;BMP_pressure;BME280_temperature;BME280_humidity;BME280_pressure;Samples;Min_cycle;Max_cycle;Signal;HPM_P1;HPM_P2
2023/03/23 00:02:29;;;;;;;9.38;4.57;;;;;;;;;;4990764;28;97920;-71
2023/03/23 00:04:55;;;;;;;7.57;4.57;;;;;;;;;;4992303;28;92574;-71
2023/03/23 00:07:27;;;;;;;19.00;4.55;;;;;;;;;;4979481;28;92997;-73
2023/03/23 00:09:52;;;;;;;7.70;3.53;;;;;;;;;;4972276;28;95331;-71
2023/03/23 00:12:18;;;;;;;9.32;4.13;;;;;;;;;;4991358;28;92441;-73
2023/03/23 00:14:43;;;;;;;8.07;3.92;;;;;;;;;;4995320;28;93842;-71
2023/03/23 00:17:10;;;;;;;11.13;5.00;;;;;;;;;;5000890;28;93805;-73
2023/03/23 00:19:45;;;;;;;12.05;3.83;;;;;;;;;;4991459;28;93124;-72
2023/03/23 00:22:11;;;;;;;10.95;4.72;;;;;;;;;;4975616;28;94983;-71
2023/03/23 00:24:36;;;;;;;10.43;3.90;;;;;;;;;;4976668;28;97596;-71
2023/03/23 00:27:03;;;;;;;7.80;3.40;;;;;;;;;;4975276;28;97297;-73
2023/03/23 00:29:28;;;;;;;6.97;3.75;;;;;;;;;;4978129;28;95917;-73
2023/03/23 00:31:53;;;;;;;13.25;4.32;;;;;;;;;;4980768;28;92568;-73
2023/03/23 00:34:24;;;;;;;7.10;3.63;;;;;;;;;;5008095;28;93321;-73
2023/03/23 00:36:50;;;;;;;12.43;3.83;;;;;;;;;;4990776;28;95164;-73
2023/03/23 00:39:16;;;;;;;9.50;3.72;;;;;;;;;;4991846;28;92525;-74
2023/03/23 00:41:42;;;;;;;9.88;3.63;;;;;;;;;;4993665;28;93523;-72
2023/03/23 00:44:08;;;;;;;6.20;3.53;;;;;;;;;;4985696;28;94003;-73
2023/03/23 00:46:33;;;;;;;8.90;3.90;;;;;;;;;;4992027;28;92533;-73
2023/03/23 00:48:58;;;;;;;14.95;3.67;;;;;;;;;;4987259;28;97706;-73
2023/03/23 00:51:24;;;;;;;7.75;3.20;;;;;;;;;;4985737;28;92432;-73
2023/03/23 00:53:49;;;;;;;6.63;3.47;;;;;;;;;;4980633;28;94614;-71
2023/03/23 00:56:15;;;;;;;9.27;4.00;;;;;;;;;;4989587;28;94334;-71
2023/03/23 00:58:40;;;;;;;4.00;2.72;;;;;;;;;;4991800;28;92627;-71
2023/03/23 01:01:06;;;;;;;14.35;3.17;;;;;;;;;;4994941;28;93041;-71
2023/03/23 01:03:31;;;;;;;3.05;2.72;;;;;;;;;;4987208;28;94894;-71
2023/03/23 01:05:57;;;;;;;9.95;3.30;;;;;;;;;;4996988;28;92952;-71
2023/03/23 01:08:23;;;;;;;6.03;2.92;;;;;;;;;;4977733;28;95290;-73
2023/03/23 01:10:48;;;;;;;7.80;2.92;;;;;;;;;;4984538;28;92547;-73
2023/03/23 01:13:15;;;;;;;9.57;3.20;;;;;;;;;;4974417;28;94964;-72
2023/03/23 01:15:41;;;;;;;7.82;3.03;;;;;;;;;;4993808;28;95068;-73
2023/03/23 01:18:07;;;;;;;7.03;3.28;;;;;;;;;;4995741;28;92697;-73
2023/03/23 01:20:32;;;;;;;7.90;3.00;;;;;;;;;;4978017;28;92458;-72
2023/03/23 01:23:00;;;;;;;7.88;3.55;;;;;;;;;;4993005;28;95402;-73
2023/03/23 01:25:26;;;;;;;8.48;3.15;;;;;;;;;;4992439;28;93016;-73
2023/03/23 01:27:52;;;;;;;4.63;2.72;;;;;;;;;;4986759;28;95054;-73
2023/03/23 01:30:17;;;;;;;6.70;2.70;;;;;;;;;;4989399;28;91704;-73
2023/03/23 01:32:42;;;;;;;7.55;3.03;;;;;;;;;;4987480;28;94965;-73
2023/03/23 01:35:08;;;;;;;4.28;2.47;;;;;;;;;;4981140;28;94001;-73
2023/03/23 01:37:33;;;;;;;5.85;2.30;;;;;;;;;;4990236;28;94969;-74
2023/03/23 01:39:58;;;;;;;6.53;2.67;;;;;;;;;;4989995;28;95459;-74
2023/03/23 01:42:30;;;;;;;5.05;2.90;;;;;;;;;;4991893;28;93384;-73
2023/03/23 01:45:21;;;;;;;5.53;2.85;;;;;;;;;;4990708;28;92886;-74
2023/03/23 01:47:50;;;;;;;6.65;2.47;;;;;;;;;;4989832;28;95372;-73
2023/03/23 01:50:16;;;;;;;4.97;2.75;;;;;;;;;;4991862;28;95223;-73
2023/03/23 01:52:41;;;;;;;6.55;3.30;;;;;;;;;;4990329;28;95116;-73
2023/03/23 01:55:07;;;;;;;6.10;3.20;;;;;;;;;;4992038;28;92776;-72
2023/03/23 01:57:33;;;;;;;6.53;3.50;;;;;;;;;;4984760;28;92518;-73
2023/03/23 02:00:00;;;;;;;5.95;2.95;;;;;;;;;;4982227;28;95006;-73
2023/03/23 02:02:26;;;;;;;6.20;3.47;;;;;;;;;;4988390;28;99852;-73
2023/03/23 02:04:54;;;;;;;5.82;3.08;;;;;;;;;;4995378;28;94059;-73
2023/03/23 02:07:21;;;;;;;6.38;3.42;;;;;;;;;;4977654;28;95378;-72
2023/03/23 02:09:46;;;;;;;8.23;3.00;;;;;;;;;;4989921;28;93863;-72
2023/03/23 02:12:12;;;;;;;6.53;2.80;;;;;;;;;;4983858;28;92609;-72
2023/03/23 02:14:37;;;;;;;9.07;3.17;;;;;;;;;;4992274;28;93613;-72
2023/03/23 02:17:08;;;;;;;7.75;3.30;;;;;;;;;;4979670;28;93776;-72
2023/03/23 02:19:54;;;;;;;7.07;3.42;;;;;;;;;;4996455;28;93243;-72
2023/03/23 02:22:31;;;;;;;7.28;3.10;;;;;;;;;;4965660;28;95399;-73
2023/03/23 02:24:57;;;;;;;6.32;3.30;;;;;;;;;;4991276;28;92397;-73
2023/03/23 02:27:28;;;;;;;5.40;3.53;;;;;;;;;;4989345;28;95374;-72
2023/03/23 02:30:04;;;;;;;8.23;3.30;;;;;;;;;;4992421;28;96138;-73
2023/03/23 02:32:32;;;;;;;6.15;3.47;;;;;;;;;;4990837;28;92930;-73
2023/03/23 02:34:59;;;;;;;6.22;3.58;;;;;;;;;;4990662;28;93516;-73
2023/03/23 02:37:28;;;;;;;6.28;3.30;;;;;;;;;;4988643;28;93145;-73
2023/03/23 02:40:11;;;;;;;4.95;3.45;;;;;;;;;;4990050;28;94932;-72
2023/03/23 02:42:39;;;;;;;9.07;3.75;;;;;;;;;;4992676;28;93009;-73
2023/03/23 02:45:07;;;;;;;3.63;3.33;;;;;;;;;;4989911;28;92072;-72
2023/03/23 02:47:34;;;;;;;10.32;3.45;;;;;;;;;;4990640;28;92487;-73
2023/03/23 02:49:59;;;;;;;5.03;3.63;;;;;;;;;;4991182;28;94564;-72
2023/03/23 02:52:30;;;;;;;10.23;3.80;;;;;;;;;;4986070;28;95272;-72
2023/03/23 02:54:55;;;;;;;;;;;;;;;;;;4978777;28;97464;-71
2023/03/23 02:57:21;;;;;;;8.20;3.50;;;;;;;;;;4992708;28;93203;-73
2023/03/23 02:59:47;;;;;;;5.65;3.20;;;;;;;;;;4983991;28;94976;-73
2023/03/23 03:02:14;;;;;;;4.50;3.22;;;;;;;;;;4974783;28;95131;-73
2023/03/23 03:04:41;;;;;;;6.57;3.88;;;;;;;;;;4990864;28;92529;-73
2023/03/23 03:07:15;;;;;;;4.03;3.22;;;;;;;;;;4982994;28;94191;-72
2023/03/23 03:10:00;;;;;;;4.68;3.00;;;;;;;;;;4969894;28;94558;-72
2023/03/23 03:12:32;;;;;;;4.63;3.10;;;;;;;;;;4993336;28;92723;-73
2023/03/23 03:15:16;;;;;;;6.57;3.58;;;;;;;;;;4991240;28;96182;-73
2023/03/23 03:17:46;;;;;;;5.35;3.10;;;;;;;;;;4993825;28;97457;-73
2023/03/23 03:20:13;;;;;;;5.65;3.33;;;;;;;;;;4992105;28;97887;-72
2023/03/23 03:22:41;;;;;;;11.40;3.50;;;;;;;;;;4991585;28;94666;-72
2023/03/23 03:25:08;;;;;;;5.00;3.25;;;;;;;;;;4991701;28;92460;-72
2023/03/23 03:27:34;;;;;;;7.00;3.20;;;;;;;;;;4978203;28;92363;-72
2023/03/23 03:30:01;;;;;;;3.63;2.88;;;;;;;;;;4988139;28;95400;-72
2023/03/23 03:32:41;;;;;;;7.47;3.25;;;;;;;;;;4990837;28;92941;-72
2023/03/23 03:35:06;;;;;;;3.83;2.85;;;;;;;;;;4975606;28;95497;-72
2023/03/23 03:37:39;;;;;;;5.50;2.47;;;;;;;;;;4990946;28;93388;-72
2023/03/23 03:40:11;;;;;;;5.63;2.47;;;;;;;;;;4992841;28;92798;-73
2023/03/23 03:42:40;;;;;;;5.28;2.20;;;;;;;;;;4985919;28;96096;-72
2023/03/23 03:45:07;;;;;;;7.07;2.67;;;;;;;;;;4987701;28;92740;-73
2023/03/23 03:47:32;;;;;;;9.82;2.70;;;;;;;;;;4990961;28;94857;-72
2023/03/23 03:49:57;;;;;;;5.72;2.25;;;;;;;;;;4989695;28;94614;-72
2023/03/23 03:52:23;;;;;;;5.95;2.70;;;;;;;;;;4978265;28;92611;-72
2023/03/23 03:54:48;;;;;;;7.72;2.92;;;;;;;;;;4985397;28;94319;-72
2023/03/23 03:57:13;;;;;;;7.10;2.80;;;;;;;;;;4987132;28;93713;-72
2023/03/23 03:59:39;;;;;;;3.63;2.30;;;;;;;;;;4980956;28;91680;-72
2023/03/23 04:02:04;;;;;;;5.47;2.45;;;;;;;;;;4990598;28;94099;-71
2023/03/23 04:04:29;;;;;;;7.68;2.30;;;;;;;;;;4984675;28;92495;-72
2023/03/23 04:06:54;;;;;;;11.88;3.00;;;;;;;;;;4989093;28;95735;-72
2023/03/23 04:09:21;;;;;;;5.82;2.80;;;;;;;;;;4981787;28;93384;-72
2023/03/23 04:11:46;;;;;;;5.82;2.58;;;;;;;;;;4985931;28;93024;-71
2023/03/23 04:14:12;;;;;;;6.70;2.58;;;;;;;;;;4973064;28;95602;-71
2023/03/23 04:16:37;;;;;;;6.93;2.28;;;;;;;;;;4980907;28;95074;-72
2023/03/23 04:19:02;;;;;;;18.67;2.90;;;;;;;;;;4977595;28;92477;-72
2023/03/23 04:21:28;;;;;;;8.13;2.35;;;;;;;;;;4993164;28;94997;-71
2023/03/23 04:23:54;;;;;;;10.90;2.50;;;;;;;;;;4997402;28;93419;-72
2023/03/23 04:26:19;;;;;;;10.13;2.20;;;;;;;;;;4993914;28;94011;-72
2023/03/23 04:28:45;;;;;;;11.20;2.70;;;;;;;;;;4991231;28;95151;-72
2023/03/23 04:31:12;;;;;;;3.35;1.73;;;;;;;;;;4970775;28;95053;-72
2023/03/23 04:33:40;;;;;;;4.47;2.00;;;;;;;;;;4992051;28;95588;-72
2023/03/23 04:36:06;;;;;;;6.85;2.03;;;;;;;;;;4997264;28;94016;-72
2023/03/23 04:38:32;;;;;;;6.18;1.95;;;;;;;;;;4962867;28;92891;-73
2023/03/23 04:41:00;;;;;;;5.25;1.90;;;;;;;;;;4977361;28;94898;-73
2023/03/23 04:43:26;;;;;;;10.57;2.10;;;;;;;;;;4988331;28;93853;-73
2023/03/23 04:45:55;;;;;;;5.72;2.10;;;;;;;;;;4995507;28;92546;-73
2023/03/23 04:48:22;;;;;;;4.20;1.88;;;;;;;;;;4975274;28;94629;-72
2023/03/23 04:50:48;;;;;;;5.22;1.77;;;;;;;;;;4981849;28;92781;-73
2023/03/23 04:53:13;;;;;;;8.20;2.22;;;;;;;;;;4990181;28;94845;-73
2023/03/23 04:55:38;;;;;;;11.13;2.42;;;;;;;;;;4980803;28;98687;-73
2023/03/23 04:58:05;;;;;;;8.55;2.45;;;;;;;;;;4989337;28;92438;-72
2023/03/23 05:00:31;;;;;;;6.13;2.15;;;;;;;;;;4985786;28;95658;-72
2023/03/23 05:02:56;;;;;;;10.20;2.30;;;;;;;;;;4981879;28;94917;-73
2023/03/23 05:05:22;;;;;;;9.20;2.08;;;;;;;;;;4973666;28;92420;-72
2023/03/23 05:07:47;;;;;;;11.27;2.05;;;;;;;;;;4988059;28;95092;-72
2023/03/23 05:10:13;;;;;;;17.13;2.85;;;;;;;;;;4993747;28;92599;-72
2023/03/23 05:12:39;;;;;;;9.32;1.88;;;;;;;;;;4994939;28;94738;-72
2023/03/23 05:15:05;;;;;;;10.57;2.55;;;;;;;;;;4965188;28;95675;-73
2023/03/23 05:17:32;;;;;;;9.38;2.15;;;;;;;;;;5007092;28;92479;-72
2023/03/23 05:19:58;;;;;;;14.18;2.78;;;;;;;;;;4992016;28;95481;-72
2023/03/23 05:22:26;;;;;;;12.50;2.83;;;;;;;;;;4979076;28;95302;-73
2023/03/23 05:24:52;;;;;;;12.73;2.95;;;;;;;;;;4984639;28;92508;-73
2023/03/23 05:27:18;;;;;;;13.40;2.92;;;;;;;;;;4966934;28;94619;-72
2023/03/23 05:29:45;;;;;;;9.27;2.63;;;;;;;;;;4992985;28;92555;-72
2023/03/23 05:32:11;;;;;;;10.23;2.30;;;;;;;;;;4993545;28;94760;-73
2023/03/23 05:34:36;;;;;;;12.65;2.30;;;;;;;;;;4990356;28;93894;-72
2023/03/23 05:37:02;;;;;;;11.63;2.63;;;;;;;;;;4991837;28;91782;-73
2023/03/23 05:39:28;;;;;;;9.07;2.60;;;;;;;;;;4973033;28;92755;-72
2023/03/23 05:41:54;;;;;;;16.35;3.40;;;;;;;;;;4983983;28;93271;-73
2023/03/23 05:44:19;;;;;;;16.88;2.65;;;;;;;;;;4990713;28;94924;-72
2023/03/23 05:46:45;;;;;;;16.25;2.72;;;;;;;;;;4994115;28;97826;-72
2023/03/23 05:49:11;;;;;;;15.98;3.50;;;;;;;;;;4979433;28;95211;-72
2023/03/23 05:51:36;;;;;;;11.43;2.53;;;;;;;;;;4986246;28;93616;-73
2023/03/23 05:54:01;;;;;;;8.85;2.67;;;;;;;;;;4989482;28;95044;-73
2023/03/23 05:56:27;;;;;;;13.80;3.50;;;;;;;;;;4992020;28;93503;-73
2023/03/23 05:58:54;;;;;;;16.60;2.88;;;;;;;;;;4982682;28;94843;-73
2023/03/23 06:01:19;;;;;;;11.75;2.80;;;;;;;;;;4979021;28;92494;-72
2023/03/23 06:03:45;;;;;;;22.10;2.97;;;;;;;;;;4978484;28;92475;-73
2023/03/23 06:06:11;;;;;;;11.57;2.85;;;;;;;;;;4987857;28;93227;-73
2023/03/23 06:08:37;;;;;;;12.07;3.13;;;;;;;;;;4973100;28;97773;-72
2023/03/23 06:11:03;;;;;;;13.35;2.90;;;;;;;;;;4979507;28;92610;-73
2023/03/23 06:13:28;;;;;;;12.40;2.95;;;;;;;;;;4991265;28;95472;-73
2023/03/23 06:15:59;;;;;;;14.93;2.80;;;;;;;;;;4993406;28;92469;-73
2023/03/23 06:18:24;;;;;;;18.27;3.38;;;;;;;;;;4980156;28;94817;-74
2023/03/23 06:20:50;;;;;;;15.93;3.17;;;;;;;;;;4992943;28;96819;-72
2023/03/23 06:23:16;;;;;;;11.77;2.58;;;;;;;;;;4991729;28;92446;-73
2023/03/23 06:25:41;;;;;;;15.02;2.92;;;;;;;;;;4991494;28;94755;-72
2023/03/23 06:28:06;;;;;;;12.95;2.92;;;;;;;;;;4968644;28;95969;-72
2023/03/23 06:30:31;;;;;;;15.85;3.22;;;;;;;;;;4986757;28;94047;-72
2023/03/23 06:32:57;;;;;;;13.70;2.83;;;;;;;;;;4987011;28;96028;-73
2023/03/23 06:35:22;;;;;;;14.35;3.25;;;;;;;;;;4989757;28;93611;-73
2023/03/23 06:37:48;;;;;;;13.23;2.78;;;;;;;;;;4990708;28;94859;-72
2023/03/23 06:40:13;;;;;;;13.07;2.85;;;;;;;;;;4985324;28;94997;-72
2023/03/23 06:42:38;;;;;;;17.27;2.95;;;;;;;;;;4992833;28;92533;-72
2023/03/23 06:45:04;;;;;;;12.95;2.60;;;;;;;;;;4991997;28;95763;-71
2023/03/23 06:47:30;;;;;;;11.10;2.65;;;;;;;;;;4993701;28;94377;-71
2023/03/23 06:49:55;;;;;;;14.38;2.72;;;;;;;;;;4993421;28;91956;-73
2023/03/23 06:52:22;;;;;;;18.88;3.03;;;;;;;;;;4966965;28;95416;-72
2023/03/23 06:54:48;;;;;;;12.65;2.92;;;;;;;;;;4990674;28;95489;-72
2023/03/23 06:57:13;;;;;;;12.25;3.03;;;;;;;;;;4991110;28;96718;-72
2023/03/23 06:59:38;;;;;;;12.95;2.70;;;;;;;;;;4987640;28;93344;-74
2023/03/23 07:02:04;;;;;;;13.80;3.42;;;;;;;;;;4965680;28;92555;-73
2023/03/23 07:04:30;;;;;;;15.30;2.58;;;;;;;;;;4983700;28;92996;-73
2023/03/23 07:06:56;;;;;;;16.77;2.38;;;;;;;;;;5000020;28;95039;-73
2023/03/23 07:09:21;;;;;;;13.90;2.83;;;;;;;;;;5007203;28;92362;-72
2023/03/23 07:11:47;;;;;;;15.30;2.35;;;;;;;;;;5006974;28;92415;-72
2023/03/23 07:14:13;;;;;;;13.00;2.40;;;;;;;;;;5009942;28;93663;-72
2023/03/23 07:16:38;;;;;;;10.77;2.53;;;;;;;;;;5007087;28;92816;-72
2023/03/23 07:19:03;;;;;;;15.30;2.92;;;;;;;;;;4987855;28;94464;-72
2023/03/23 07:21:28;;;;;;;13.32;2.80;;;;;;;;;;4988748;28;95388;-74
2023/03/23 07:23:53;;;;;;;8.35;2.13;;;;;;;;;;5007314;28;94373;-72
2023/03/23 07:26:19;;;;;;;10.00;2.40;;;;;;;;;;5018616;28;92292;-72
2023/03/23 07:28:46;;;;;;;15.43;2.97;;;;;;;;;;5006996;28;92502;-72
2023/03/23 07:31:11;;;;;;;11.18;2.58;;;;;;;;;;5019753;28;92151;-72
2023/03/23 07:33:37;;;;;;;8.20;1.90;;;;;;;;;;5001857;28;93095;-72
2023/03/23 07:36:02;;;;;;;15.23;3.08;;;;;;;;;;5019357;28;92426;-72
2023/03/23 07:38:28;;;;;;;9.07;2.67;;;;;;;;;;5009792;28;91601;-72
2023/03/23 07:40:54;;;;;;;6.90;2.05;;;;;;;;;;5008062;28;94186;-72
2023/03/23 07:43:20;;;;;;;12.80;2.67;;;;;;;;;;5014364;28;94806;-72
2023/03/23 07:45:45;;;;;;;9.10;2.55;;;;;;;;;;5015654;28;94500;-71
2023/03/23 07:48:11;;;;;;;11.10;2.50;;;;;;;;;;5019412;28;92024;-72
2023/03/23 07:50:37;;;;;;;9.68;2.15;;;;;;;;;;5022104;28;93030;-72
2023/03/23 07:53:03;;;;;;;9.82;2.50;;;;;;;;;;5018450;28;92625;-71
2023/03/23 07:55:28;;;;;;;12.73;2.70;;;;;;;;;;5017339;28;92352;-71
2023/03/23 07:57:54;;;;;;;10.23;2.67;;;;;;;;;;5002161;28;93289;-72
2023/03/23 08:00:20;;;;;;;8.98;2.38;;;;;;;;;;4987725;28;94157;-72
2023/03/23 08:02:46;;;;;;;7.60;2.50;;;;;;;;;;4967801;28;94550;-71
2023/03/23 08:05:13;;;;;;;19.85;3.45;;;;;;;;;;4986529;28;93045;-72
2023/03/23 08:07:39;;;;;;;6.47;2.13;;;;;;;;;;4991113;28;92409;-72
2023/03/23 08:10:04;;;;;;;13.38;2.85;;;;;;;;;;4974709;28;94999;-71
2023/03/23 08:12:30;;;;;;;11.70;2.67;;;;;;;;;;4988727;28;95048;-72
2023/03/23 08:14:55;;;;;;;9.65;2.20;;;;;;;;;;4993974;28;92494;-72
2023/03/23 08:17:20;;;;;;;11.43;2.45;;;;;;;;;;4997677;28;93336;-72
2023/03/23 08:19:45;;;;;;;11.32;2.53;;;;;;;;;;4999792;28;95214;-71
2023/03/23 08:22:11;;;;;;;14.02;3.13;;;;;;;;;;4989668;28;93449;-71
2023/03/23 08:24:36;;;;;;;12.18;2.45;;;;;;;;;;4992410;28;93508;-72
2023/03/23 08:27:01;;;;;;;9.90;2.45;;;;;;;;;;4987525;28;92131;-72
2023/03/23 08:29:26;;;;;;;11.60;2.85;;;;;;;;;;4997179;28;92472;-71
2023/03/23 08:31:53;;;;;;;13.20;2.70;;;;;;;;;;5002345;28;93272;-72
2023/03/23 08:34:18;;;;;;;8.52;2.50;;;;;;;;;;5006704;28;95349;-72
2023/03/23 08:36:46;;;;;;;11.63;2.65;;;;;;;;;;5001883;28;96463;-71
2023/03/23 08:39:11;;;;;;;8.80;2.58;;;;;;;;;;5014753;28;95120;-71
2023/03/23 08:41:37;;;;;;;17.30;2.92;;;;;;;;;;5015279;28;92536;-72
2023/03/23 08:44:03;;;;;;;11.20;2.72;;;;;;;;;;4994850;28;94419;-72
2023/03/23 08:46:28;;;;;;;14.20;2.80;;;;;;;;;;4993040;28;92910;-71
2023/03/23 08:48:54;;;;;;;11.43;2.40;;;;;;;;;;4996091;28;93007;-71
2023/03/23 08:51:19;;;;;;;13.10;2.90;;;;;;;;;;4995105;28;94255;-72
2023/03/23 08:53:44;;;;;;;11.95;2.67;;;;;;;;;;4989725;28;92546;-71
2023/03/23 08:56:10;;;;;;;9.38;2.58;;;;;;;;;;4980075;28;94746;-72
2023/03/23 08:58:36;;;;;;;14.23;2.65;;;;;;;;;;4961221;28;95852;-72
2023/03/23 09:01:02;;;;;;;9.15;2.38;;;;;;;;;;4975735;28;92557;-72
2023/03/23 09:03:29;;;;;;;13.90;2.95;;;;;;;;;;4978087;28;92806;-72
2023/03/23 09:05:57;;;;;;;5.03;1.92;;;;;;;;;;4977225;28;93014;-72
2023/03/23 09:08:23;;;;;;;11.00;2.63;;;;;;;;;;4978866;28;93148;-72
2023/03/23 09:10:49;;;;;;;10.68;2.17;;;;;;;;;;4983742;28;93142;-72
2023/03/23 09:13:15;;;;;;;10.68;2.55;;;;;;;;;;4958741;28;92453;-72
2023/03/23 09:15:40;;;;;;;10.55;2.38;;;;;;;;;;4977333;28;95224;-72
2023/03/23 09:18:06;;;;;;;9.73;2.15;;;;;;;;;;4991608;28;96020;-72
2023/03/23 09:20:31;;;;;;;14.40;2.55;;;;;;;;;;4991184;28;92814;-72
2023/03/23 09:22:57;;;;;;;10.27;2.50;;;;;;;;;;4996305;28;94835;-72
2023/03/23 09:25:25;;;;;;;11.60;2.97;;;;;;;;;;4994109;28;92564;-72
2023/03/23 09:27:56;;;;;;;10.48;2.42;;;;;;;;;;4976593;28;94962;-72
2023/03/23 09:30:22;;;;;;;11.15;2.50;;;;;;;;;;4964355;28;94870;-72
2023/03/23 09:32:48;;;;;;;13.25;3.28;;;;;;;;;;4994564;28;92808;-72
2023/03/23 09:35:13;;;;;;;13.82;3.00;;;;;;;;;;4993948;28;93139;-72
2023/03/23 09:37:39;;;;;;;12.45;2.53;;;;;;;;;;4991688;28;93546;-72
2023/03/23 09:40:06;;;;;;;14.55;3.47;;;;;;;;;;4993832;28;91671;-72
2023/03/23 09:42:44;;;;;;;14.68;3.20;;;;;;;;;;4977591;28;92672;-72
2023/03/23 09:45:16;;;;;;;10.05;2.22;;;;;;;;;;4997349;28;95838;-72
2023/03/23 09:48:00;;;;;;;15.63;3.55;;;;;;;;;;4987820;28;95319;-72
2023/03/23 09:50:31;;;;;;;14.23;3.45;;;;;;;;;;4993885;28;93598;-72
2023/03/23 09:53:00;;;;;;;14.52;2.78;;;;;;;;;;4975117;28;92554;-72
2023/03/23 09:55:28;;;;;;;15.35;3.25;;;;;;;;;;4994062;28;92746;-72
2023/03/23 09:58:05;;;;;;;14.73;3.25;;;;;;;;;;4990547;28;92816;-72
2023/03/23 10:00:36;;;;;;;15.02;2.75;;;;;;;;;;4988286;28;93795;-72
2023/03/23 10:03:15;;;;;;;15.15;3.35;;;;;;;;;;4992989;28;94862;-72
2023/03/23 10:05:50;;;;;;;12.23;3.20;;;;;;;;;;4963877;28;93077;-72
2023/03/23 10:08:18;;;;;;;12.85;2.85;;;;;;;;;;4988096;28;92944;-72
2023/03/23 10:10:46;;;;;;;10.50;2.60;;;;;;;;;;4989969;28;93157;-71
2023/03/23 10:13:20;;;;;;;13.48;2.80;;;;;;;;;;4987825;28;94936;-71
2023/03/23 10:15:45;;;;;;;11.32;2.78;;;;;;;;;;4975833;28;95922;-71
2023/03/23 10:18:21;;;;;;;14.25;3.15;;;;;;;;;;4977821;28;95115;-71
2023/03/23 10:20:50;;;;;;;19.88;3.42;;;;;;;;;;5000005;28;92466;-71
2023/03/23 10:23:19;;;;;;;9.33;2.50;;;;;;;;;;4993217;28;94671;-72
2023/03/23 10:25:51;;;;;;;16.27;3.15;;;;;;;;;;4988768;28;96104;-71
2023/03/23 10:28:37;;;;;;;18.27;3.17;;;;;;;;;;4991156;28;92619;-72
2023/03/23 10:31:03;;;;;;;15.43;3.40;;;;;;;;;;4992484;28;93226;-71
2023/03/23 10:33:37;;;;;;;16.48;3.13;;;;;;;;;;4957311;28;92609;-71
2023/03/23 10:36:05;;;;;;;10.68;2.90;;;;;;;;;;4976994;28;95381;-71
2023/03/23 10:38:39;;;;;;;12.90;3.33;;;;;;;;;;4990173;28;95901;-72
2023/03/23 10:41:11;;;;;;;16.02;3.30;;;;;;;;;;4988991;28;92490;-72
2023/03/23 10:43:36;;;;;;;18.65;3.53;;;;;;;;;;4982691;28;95135;-71
2023/03/23 10:46:05;;;;;;;15.30;3.05;;;;;;;;;;4972710;28;95348;-71
2023/03/23 10:48:32;;;;;;;11.38;2.40;;;;;;;;;;4977274;28;92527;-72
2023/03/23 10:51:00;;;;;;;11.43;3.00;;;;;;;;;;4994057;28;93153;-71
2023/03/23 10:53:32;;;;;;;18.13;3.67;;;;;;;;;;4995571;28;95225;-71
2023/03/23 10:55:58;;;;;;;14.07;3.13;;;;;;;;;;4992306;28;95439;-72
2023/03/23 10:58:31;;;;;;;15.65;3.13;;;;;;;;;;4986217;28;93692;-72
2023/03/23 11:00:57;;;;;;;14.57;3.47;;;;;;;;;;4992454;28;92534;-71
2023/03/23 11:03:23;;;;;;;13.80;3.17;;;;;;;;;;4991583;28;94808;-71
2023/03/23 11:05:50;;;;;;;15.80;3.53;;;;;;;;;;4992045;28;95916;-72
2023/03/23 11:08:26;;;;;;;16.42;3.55;;;;;;;;;;4972851;28;92519;-72
2023/03/23 11:10:52;;;;;;;14.00;3.22;;;;;;;;;;4992766;28;95162;-71
2023/03/23 11:13:19;;;;;;;14.35;3.20;;;;;;;;;;4990395;28;95046;-74
2023/03/23 11:15:45;;;;;;;18.88;3.35;;;;;;;;;;4980297;28;93619;-73
2023/03/23 11:18:23;;;;;;;16.48;3.15;;;;;;;;;;4990565;28;95579;-72
2023/03/23 11:20:50;;;;;;;18.92;3.90;;;;;;;;;;4992939;28;91759;-73
2023/03/23 11:23:18;;;;;;;12.45;3.35;;;;;;;;;;4991865;28;94775;-73
2023/03/23 11:26:02;;;;;;;17.70;3.50;;;;;;;;;;4985377;28;93771;-73
2023/03/23 11:28:31;;;;;;;16.90;3.10;;;;;;;;;;4971392;28;94975;-73
2023/03/23 11:30:58;;;;;;;17.30;3.15;;;;;;;;;;4972488;28;97348;-73
2023/03/23 11:33:24;;;;;;;16.98;3.60;;;;;;;;;;4973028;28;96066;-73
2023/03/23 11:35:52;;;;;;;17.20;3.35;;;;;;;;;;4981640;28;93727;-73
2023/03/23 11:38:18;;;;;;;15.50;3.10;;;;;;;;;;4992563;28;93289;-73
2023/03/23 11:40:47;;;;;;;14.23;2.85;;;;;;;;;;4992190;28;92483;-73
2023/03/23 11:43:14;;;;;;;12.98;2.33;;;;;;;;;;4992226;28;95466;-73
2023/03/23 11:45:46;;;;;;;9.43;2.90;;;;;;;;;;4990521;28;94509;-73
2023/03/23 11:48:11;;;;;;;15.15;2.55;;;;;;;;;;4976232;28;92469;-73
2023/03/23 11:50:55;;;;;;;16.25;3.35;;;;;;;;;;4991254;28;94930;-73
2023/03/23 11:53:33;;;;;;;9.43;2.75;;;;;;;;;;4991042;28;95837;-72
2023/03/23 11:56:12;;;;;;;18.55;3.17;;;;;;;;;;4989718;28;92899;-74
2023/03/23 11:58:37;;;;;;;11.20;3.25;;;;;;;;;;4995224;28;93400;-73
2023/03/23 12:01:11;;;;;;;17.13;3.20;;;;;;;;;;4992050;28;92511;-73
2023/03/23 12:03:42;;;;;;;12.95;2.88;;;;;;;;;;4992569;28;93675;-73
2023/03/23 12:06:10;;;;;;;18.15;3.53;;;;;;;;;;4985784;28;94272;-73
2023/03/23 12:08:53;;;;;;;21.08;3.63;;;;;;;;;;4984250;28;92554;-73
2023/03/23 12:11:28;;;;;;;21.48;3.70;;;;;;;;;;4972444;28;95060;-73
2023/03/23 12:14:12;;;;;;;13.15;3.38;;;;;;;;;;4972856;28;93337;-72
2023/03/23 12:16:39;;;;;;;17.45;3.97;;;;;;;;;;4979702;28;92522;-72
2023/03/23 12:19:17;;;;;;;13.23;3.50;;;;;;;;;;4990563;28;95438;-72
2023/03/23 12:21:50;;;;;;;15.80;3.83;;;;;;;;;;4991207;28;95299;-73
2023/03/23 12:24:30;;;;;;;16.50;4.10;;;;;;;;;;4957915;28;95023;-72
2023/03/23 12:26:56;;;;;;;13.10;3.45;;;;;;;;;;4985437;28;93610;-73
2023/03/23 12:29:30;;;;;;;18.58;3.72;;;;;;;;;;4992153;28;92419;-73
2023/03/23 12:32:25;;;;;;;12.48;3.17;;;;;;;;;;4987416;28;92894;-73
2023/03/23 12:34:54;;;;;;;12.48;3.28;;;;;;;;;;4913590;28;93523;-73
2023/03/23 12:37:20;;;;;;;11.48;2.78;;;;;;;;;;4935252;28;93254;-73
2023/03/23 12:39:52;;;;;;;13.23;2.40;;;;;;;;;;4942934;28;95234;-73
2023/03/23 12:42:36;;;;;;;10.65;2.33;;;;;;;;;;4938301;28;96205;-73
2023/03/23 12:45:02;;;;;;;8.23;2.15;;;;;;;;;;4938093;28;96535;-73
2023/03/23 12:47:37;;;;;;;9.70;2.25;;;;;;;;;;4953414;28;94660;-72
2023/03/23 12:50:34;;;;;;;11.40;2.42;;;;;;;;;;4937517;28;92632;-73
2023/03/23 12:53:11;;;;;;;9.00;2.28;;;;;;;;;;4847683;28;94275;-73
2023/03/23 12:56:00;;;;;;;9.55;2.20;;;;;;;;;;4876986;28;93896;-73
2023/03/23 12:58:26;;;;;;;11.18;2.50;;;;;;;;;;4883391;28;92611;-73
2023/03/23 13:01:04;;;;;;;10.70;2.85;;;;;;;;;;4865012;28;92867;-73
2023/03/23 13:03:30;;;;;;;6.88;2.22;;;;;;;;;;4893850;28;93737;-73
2023/03/23 13:06:15;;;;;;;9.07;1.98;;;;;;;;;;4895610;28;92987;-73
2023/03/23 13:09:01;;;;;;;10.27;2.47;;;;;;;;;;4898352;28;93360;-73
2023/03/23 13:11:26;;;;;;;17.00;2.17;;;;;;;;;;4887284;28;96549;-73
2023/03/23 13:13:56;;;;;;;7.47;2.30;;;;;;;;;;4919074;28;96803;-73
2023/03/23 13:16:40;;;;;;;13.18;1.98;;;;;;;;;;4933383;28;93502;-72
2023/03/23 13:19:13;;;;;;;9.10;2.85;;;;;;;;;;4933177;28;92651;-72
2023/03/23 13:21:44;;;;;;;10.88;2.20;;;;;;;;;;4914966;28;93092;-73
2023/03/23 13:24:12;;;;;;;13.80;2.55;;;;;;;;;;4917195;28;93398;-73
2023/03/23 13:26:40;;;;;;;13.68;2.92;;;;;;;;;;4917982;28;92736;-72
2023/03/23 13:29:24;;;;;;;7.28;2.08;;;;;;;;;;4969011;28;95042;-72
2023/03/23 13:31:49;;;;;;;11.60;2.50;;;;;;;;;;4988962;28;92606;-72
2023/03/23 13:34:24;;;;;;;9.95;2.45;;;;;;;;;;4992274;28;94772;-72
2023/03/23 13:37:02;;;;;;;9.35;2.35;;;;;;;;;;4991512;28;98701;-72
2023/03/23 13:39:29;;;;;;;10.63;1.98;;;;;;;;;;4990203;28;92964;-72
2023/03/23 13:42:17;;;;;;;8.57;2.13;;;;;;;;;;4992186;28;93264;-72
2023/03/23 13:44:48;;;;;;;13.07;2.70;;;;;;;;;;4992357;28;93372;-72
2023/03/23 13:47:23;;;;;;;7.55;2.15;;;;;;;;;;4989322;28;93049;-72
2023/03/23 13:50:09;;;;;;;10.80;2.58;;;;;;;;;;4987785;28;95064;-72
2023/03/23 13:52:43;;;;;;;12.68;2.17;;;;;;;;;;4993146;28;96248;-72
2023/03/23 13:55:27;;;;;;;14.75;2.72;;;;;;;;;;4986373;28;94111;-72
2023/03/23 13:57:57;;;;;;;12.88;2.25;;;;;;;;;;4988467;28;96231;-72
2023/03/23 14:00:29;;;;;;;13.07;2.60;;;;;;;;;;4977903;28;92428;-72
2023/03/23 14:03:10;;;;;;;14.65;3.05;;;;;;;;;;4985297;28;95712;-72
2023/03/23 14:05:43;;;;;;;10.43;2.25;;;;;;;;;;4983407;28;93240;-72
2023/03/23 14:08:08;;;;;;;5.55;1.95;;;;;;;;;;4986066;28;92557;-72
2023/03/23 14:10:35;;;;;;;10.68;2.38;;;;;;;;;;4973862;28;93658;-72
2023/03/23 14:13:02;;;;;;;9.02;2.30;;;;;;;;;;4957141;28;95479;-72
2023/03/23 14:15:28;;;;;;;8.35;1.77;;;;;;;;;;4987122;28;92486;-72
2023/03/23 14:17:54;;;;;;;7.97;2.45;;;;;;;;;;4978423;28;93508;-72
2023/03/23 14:20:26;;;;;;;10.30;1.95;;;;;;;;;;4975545;28;91736;-73
2023/03/23 14:22:55;;;;;;;8.88;2.30;;;;;;;;;;4988071;28;93143;-72
2023/03/23 14:25:21;;;;;;;9.27;2.30;;;;;;;;;;4977862;28;95154;-72
2023/03/23 14:27:47;;;;;;;5.95;2.00;;;;;;;;;;4987519;28;95002;-72
2023/03/23 14:30:13;;;;;;;8.63;2.40;;;;;;;;;;4984186;28;97214;-72
2023/03/23 14:32:40;;;;;;;12.93;3.10;;;;;;;;;;4989352;28;95041;-72
2023/03/23 14:35:07;;;;;;;11.93;2.35;;;;;;;;;;4986526;28;92606;-73
2023/03/23 14:37:32;;;;;;;6.40;2.13;;;;;;;;;;4988630;28;92904;-74
2023/03/23 14:39:58;;;;;;;12.63;2.58;;;;;;;;;;4992122;28;92655;-72
2023/03/23 14:42:29;;;;;;;7.65;2.33;;;;;;;;;;4973818;28;92865;-72
2023/03/23 14:44:54;;;;;;;;;;;;;;;;;;4974262;28;94640;-74